Terminal Aerodrome Forecast
Issued by NWS Sterling, VA

Current Version | Previous Version | Text Only | Print | Product List | Glossary Off
Versions: 1 2 3 4 5 6 7 8 9 10 11 12 13 14 15 16 17 18 19

000
FTUS41 KLWX 191700
TAFMRB
TAF
KMRB 191720Z 1918/2018 34013G23KT P6SM SKC
     FM192200 31009KT P6SM FEW250
     FM200200 31005KT P6SM FEW250
     FM201400 18007KT P6SM SCT250=

USA.gov is the U.S. government's official web portal to all federal, state and local government web resources and services.